Главная страница
METAR-TAF:

METAR-TAF

Аэропорты :

Ларнака, Кипр

широта: 34-53N, долгота: 033-38E, высота над уровнем моря: 2 м

Текущие метеонаблюдения

Эта сводка был подготовлена 5 минут назад, в 13:30 UTC
Ветер 17 Узел от юго-западный
Температура 34°C
Влажность 41%
Давление 1004 hPa
Видимость 10 км и более
небольшая облачность на высоте 3000 фута

METAR: LCLK 141330Z 22017KT 9999 FEW030 34/19 Q1004 NOSIG

Время: 16:35 (13:35 UTC)

Прогноз

Эта сводка был подготовлена 2 часа и 5 минут назад, в 11:30 UTC
Прогноз действительный с 14-го 12 UTC до 15-го 12 UTC
Ветер 18 Узел от юго-западный
Видимость 10 км и более
небольшая облачность на высоте 3000 фута
изменения
С 14-го 17 UTC до 14-го 21 UTC
Ветер 7 Узел от северо-западный
изменения
С 15-го 08 UTC до 15-го 12 UTC
Ветер 16 Узел от южный-юго-западный

TAF: LCLK 141130Z 1412/1512 22018KT 9999 FEW030 BECMG 1417/1421 32007KT BECMG 1508/1512 20016KT

Метеонаблюдения и прогнозы для более 4000 аэропортов (сводки METAR и TAF).

Имеющиеся станции представлены на карте желтыми и красными точками.

Чтобы увидеть название станции, наведите на нее мышь.

Затем щелкните, чтобы увидеть метеонаблюдения и метеопрогнозы.

Управление картой: чтобы увеличить масштаб, щелкните зеленые кнопки с черным крестиком; чтобы уменьшить масштаб, щелкните зеленую кнопку с тире; для просмотра соседних карт щелкайте зеленые стрелки.


METAR-TAF: